createdAt,value
2023-05-06T00:00:48.166Z,13.4
2023-05-06T00:02:04.451Z,13.7
2023-05-06T00:03:20.747Z,12.8
2023-05-06T00:04:37.047Z,12.5
2023-05-06T00:05:53.322Z,13.4
2023-05-06T00:07:09.624Z,13.7
2023-05-06T00:08:25.910Z,14.4
2023-05-06T00:09:42.206Z,14.5
2023-05-06T00:10:58.498Z,14.3
2023-05-06T00:12:14.811Z,14.5
2023-05-06T00:13:30.119Z,14.2
2023-05-06T00:14:45.421Z,14.5
2023-05-06T00:16:01.719Z,14.7
2023-05-06T00:17:18.020Z,15
2023-05-06T00:18:34.305Z,15.2
2023-05-06T00:19:50.612Z,15.1
2023-05-06T00:21:06.905Z,15.4
2023-05-06T00:22:23.185Z,14.7
2023-05-06T00:23:39.478Z,15.7
2023-05-06T00:24:55.783Z,15.9
2023-05-06T00:26:12.077Z,15.7
2023-05-06T00:27:28.367Z,16
2023-05-06T00:28:44.653Z,15.4
2023-05-06T00:30:00.952Z,15.3
2023-05-06T00:31:16.264Z,16
2023-05-06T00:32:32.569Z,16
2023-05-06T00:33:48.855Z,15.9
2023-05-06T00:36:21.447Z,16
2023-05-06T00:37:37.731Z,15.5
2023-05-06T00:38:54.038Z,15.5
2023-05-06T00:40:10.331Z,15.5
2023-05-06T00:41:26.623Z,16.4
2023-05-06T00:42:42.914Z,15.9
2023-05-06T00:43:59.210Z,16.5
2023-05-06T00:45:15.501Z,16.7
2023-05-06T00:46:31.801Z,16.5
2023-05-06T00:47:47.111Z,16.8
2023-05-06T00:49:03.388Z,17.4
2023-05-06T00:50:19.691Z,16.8
2023-05-06T00:51:35.982Z,16.4
2023-05-06T00:52:52.288Z,16.9
2023-05-06T00:54:08.583Z,16.2
2023-05-06T00:55:24.864Z,16.7
2023-05-06T00:56:41.158Z,16.5
2023-05-06T00:57:57.456Z,16.4
2023-05-06T00:59:13.740Z,16.3
2023-05-06T01:00:30.038Z,16.6
2023-05-06T01:03:02.640Z,16.5
2023-05-06T01:04:17.948Z,16.4
2023-05-06T01:05:34.226Z,16.5
2023-05-06T01:06:50.531Z,15.9
2023-05-06T01:08:06.829Z,15.5
2023-05-06T01:09:23.121Z,16.6
2023-05-06T01:10:39.402Z,16.5
2023-05-06T01:11:55.702Z,16.7
2023-05-06T01:13:12.005Z,17.4
2023-05-06T01:15:44.585Z,17.6
2023-05-06T01:17:00.875Z,17.3
2023-05-06T01:18:17.181Z,18
2023-05-06T01:19:33.460Z,18.1
2023-05-06T01:20:48.782Z,17.3
2023-05-06T01:22:05.062Z,17.8
2023-05-06T01:23:21.367Z,17.2
2023-05-06T01:24:37.666Z,17.1
2023-05-06T01:25:53.962Z,17.1
2023-05-06T01:27:10.254Z,17
2023-05-06T01:28:26.552Z,16.8
2023-05-06T01:29:42.829Z,17
2023-05-06T01:30:59.124Z,17.6
2023-05-06T01:32:15.416Z,17.3
2023-05-06T01:33:31.714Z,17.1
2023-05-06T01:34:48.008Z,17.2
2023-05-06T01:36:04.316Z,17
2023-05-06T01:37:19.619Z,16.9
2023-05-06T01:38:35.911Z,16.9
2023-05-06T01:39:52.214Z,17.2
2023-05-06T01:41:08.489Z,17.3
2023-05-06T01:42:24.793Z,17
2023-05-06T01:43:41.091Z,16.5
2023-05-06T01:44:57.386Z,17.1
2023-05-06T01:46:13.664Z,17.7
2023-05-06T01:47:29.976Z,17.7
2023-05-06T01:48:46.267Z,17.5
2023-05-06T01:50:02.555Z,17.4
2023-05-06T01:51:18.844Z,16.9
2023-05-06T01:52:35.140Z,15.1
2023-05-06T01:53:50.459Z,17.1
2023-05-06T01:55:06.744Z,17.7
2023-05-06T01:56:23.048Z,16
2023-05-06T01:57:39.342Z,17.2
2023-05-06T01:58:55.638Z,17.6
2023-05-06T02:00:11.929Z,17.6
2023-05-06T02:01:28.209Z,16.8
2023-05-06T02:02:44.512Z,15.1
2023-05-06T02:04:00.809Z,14.4
2023-05-06T02:05:17.102Z,15.5
2023-05-06T02:06:33.403Z,14.6
2023-05-06T02:07:49.682Z,13.1
2023-05-06T02:09:05.992Z,13.4
2023-05-06T02:10:21.295Z,14.3
2023-05-06T02:11:37.582Z,14.7
2023-05-06T02:12:53.885Z,14.6
2023-05-06T02:14:10.173Z,15.5
2023-05-06T02:15:26.468Z,13.9
2023-05-06T02:16:42.755Z,14.5
2023-05-06T02:19:15.351Z,15.2
2023-05-06T02:20:31.647Z,15.2
2023-05-06T02:21:47.932Z,15.1
2023-05-06T02:23:04.228Z,15.7
2023-05-06T02:24:20.520Z,16
2023-05-06T02:25:36.817Z,16.4
2023-05-06T02:26:52.136Z,16.2
2023-05-06T02:28:08.425Z,17
2023-05-06T02:29:24.726Z,15.3
2023-05-06T02:30:41.011Z,16.3
2023-05-06T02:31:57.298Z,15.6
2023-05-06T02:33:13.600Z,16.2
2023-05-06T02:34:29.889Z,17.2
2023-05-06T02:35:46.196Z,16.9
2023-05-06T02:37:02.485Z,16.6
2023-05-06T02:38:18.778Z,16.1
2023-05-06T02:39:35.076Z,15.8
2023-05-06T02:40:51.359Z,10.8
2023-05-06T02:42:07.662Z,10.3
2023-05-06T02:43:22.971Z,9.9
2023-05-06T02:44:39.270Z,9.9
2023-05-06T02:45:55.562Z,9.2
2023-05-06T02:47:11.857Z,9.7
2023-05-06T02:48:28.143Z,9.9
2023-05-06T02:49:44.430Z,10.2
2023-05-06T02:51:00.740Z,9.7
2023-05-06T02:52:17.025Z,9.3
2023-05-06T02:53:33.328Z,10.2
2023-05-06T02:54:49.620Z,10.1
2023-05-06T02:56:05.900Z,10
2023-05-06T02:57:22.201Z,10
2023-05-06T02:58:38.497Z,10.1
2023-05-06T02:59:53.815Z,10.7
2023-05-06T03:01:10.109Z,10.7
2023-05-06T03:02:26.383Z,10.9
2023-05-06T03:03:42.683Z,10.9
2023-05-06T03:04:58.986Z,10.4
2023-05-06T03:06:15.211Z,10
2023-05-06T03:07:31.469Z,11
2023-05-06T03:08:47.717Z,11.9
2023-05-06T03:10:03.963Z,11
2023-05-06T03:12:36.437Z,10.8
2023-05-06T03:13:52.668Z,11.2
2023-05-06T03:15:08.922Z,11.1
2023-05-06T03:16:24.179Z,10.8
2023-05-06T03:17:40.411Z,10.6
2023-05-06T03:18:56.652Z,11.4
2023-05-06T03:20:12.881Z,11
2023-05-06T03:21:28.150Z,11.8
2023-05-06T03:22:44.394Z,11.2
2023-05-06T03:24:00.638Z,11.7
2023-05-06T03:25:16.869Z,11.7
2023-05-06T03:27:49.360Z,11.1
2023-05-06T03:29:05.582Z,10.9
2023-05-06T03:30:21.818Z,11
2023-05-06T03:31:38.066Z,11.8
2023-05-06T03:32:54.316Z,11.2
2023-05-06T03:34:10.555Z,11.8
2023-05-06T03:35:26.793Z,11.6
2023-05-06T03:37:59.267Z,12
2023-05-06T03:39:14.528Z,12.5
2023-05-06T03:40:29.797Z,13.6
2023-05-06T03:43:02.265Z,13.2
2023-05-06T03:44:18.513Z,12.7
2023-05-06T03:45:34.745Z,12
2023-05-06T03:48:07.223Z,11.3
2023-05-06T03:49:23.464Z,12
2023-05-06T03:50:39.706Z,13.1
2023-05-06T03:51:55.949Z,12.9
2023-05-06T03:53:12.187Z,12.6
2023-05-06T03:54:28.419Z,13.8
2023-05-06T03:55:43.685Z,12.9
2023-05-06T03:58:15.182Z,12.8
2023-05-06T04:00:47.668Z,12.1
2023-05-06T04:02:03.907Z,12.7
2023-05-06T04:03:20.140Z,11.7
2023-05-06T04:07:08.858Z,11.3
2023-05-06T04:08:25.112Z,11.9
2023-05-06T04:09:41.347Z,11.1
2023-05-06T04:10:57.584Z,11.5
2023-05-06T04:13:30.073Z,12.1
2023-05-06T04:14:45.328Z,12.1
2023-05-06T04:16:01.554Z,11.7
2023-05-06T04:17:17.792Z,11.3
2023-05-06T04:18:34.048Z,11.7
2023-05-06T04:19:50.283Z,12.2
2023-05-06T04:21:06.517Z,11
2023-05-06T04:22:22.756Z,10.9
2023-05-06T04:23:38.994Z,11.5
2023-05-06T04:24:55.240Z,11.5
2023-05-06T04:26:11.478Z,11.7
2023-05-06T04:27:27.713Z,11.3
2023-05-06T04:28:43.960Z,11.1
2023-05-06T04:30:00.205Z,11.3
2023-05-06T04:31:15.448Z,11.2
2023-05-06T04:32:31.695Z,11.2
2023-05-06T04:33:46.949Z,11.3
2023-05-06T04:35:02.205Z,11.3
2023-05-06T04:36:18.457Z,11.7
2023-05-06T04:37:34.688Z,11
2023-05-06T04:38:50.924Z,11.8
2023-05-06T04:40:07.171Z,12.1
2023-05-06T04:41:23.414Z,11.9
2023-05-06T04:42:39.653Z,12
2023-05-06T04:43:55.885Z,12.4
2023-05-06T04:45:12.135Z,12
2023-05-06T04:46:28.368Z,11.5
2023-05-06T04:47:43.626Z,12.2
2023-05-06T04:48:58.884Z,11.8
2023-05-06T04:50:15.132Z,11.3
2023-05-06T04:51:31.363Z,11.7
2023-05-06T04:52:47.607Z,11.7
2023-05-06T04:54:03.857Z,12.1
2023-05-06T04:55:20.085Z,13.3
2023-05-06T04:56:36.336Z,12.3
2023-05-06T04:59:08.810Z,12.1
2023-05-06T05:00:25.054Z,12.1
2023-05-06T05:01:41.280Z,12
2023-05-06T05:02:57.522Z,12
2023-05-06T05:06:46.251Z,12.3
2023-05-06T05:08:01.503Z,12.5
2023-05-06T05:09:16.774Z,12.6
2023-05-06T05:10:32.997Z,12.6
2023-05-06T05:11:49.255Z,12.7
2023-05-06T05:13:05.484Z,13.4
2023-05-06T05:14:21.735Z,12.2
2023-05-06T05:15:37.974Z,12.6
2023-05-06T05:16:54.194Z,12.8
2023-05-06T05:18:10.445Z,13.7
2023-05-06T05:19:26.689Z,13.4
2023-05-06T05:20:42.929Z,13.9
2023-05-06T05:21:59.160Z,14.3
2023-05-06T05:23:14.419Z,11.7
2023-05-06T05:24:29.691Z,14.2
2023-05-06T05:25:45.926Z,12.9
2023-05-06T05:27:02.163Z,12.5
2023-05-06T05:28:18.407Z,14.6
2023-05-06T05:29:34.649Z,13.6
2023-05-06T05:30:50.887Z,12.8
2023-05-06T05:32:07.118Z,12.9
2023-05-06T05:33:23.369Z,14.6
2023-05-06T05:34:39.602Z,13.8
2023-05-06T05:35:55.831Z,13.8
2023-05-06T05:37:12.076Z,17.6
2023-05-06T05:38:28.317Z,17.7
2023-05-06T05:39:44.564Z,15.8
2023-05-06T05:41:00.926Z,13.2
2023-05-06T05:42:17.161Z,15.2
2023-05-06T05:43:33.396Z,17.8
2023-05-06T05:44:49.632Z,16.4
2023-05-06T05:46:05.881Z,18.3
2023-05-06T05:47:22.126Z,16.8
2023-05-06T05:48:38.353Z,15.8
2023-05-06T05:49:54.594Z,17.5
2023-05-06T05:52:27.082Z,13.8
2023-05-06T05:54:59.553Z,16.4
2023-05-06T05:56:15.798Z,15.6
2023-05-06T05:57:31.047Z,19.7
2023-05-06T06:00:03.527Z,13.9
2023-05-06T06:01:18.800Z,15.8
2023-05-06T06:02:34.054Z,19.4
2023-05-06T06:03:50.289Z,16.8
2023-05-06T06:05:06.535Z,20.3
2023-05-06T06:06:22.779Z,15.4
2023-05-06T06:07:39.006Z,17.8
2023-05-06T06:08:55.244Z,20.2
2023-05-06T06:10:11.499Z,20.9
2023-05-06T06:11:27.730Z,22.3
2023-05-06T06:12:43.969Z,21.8
2023-05-06T06:14:00.209Z,22
2023-05-06T06:15:15.485Z,22.8
2023-05-06T06:16:30.739Z,22.3
2023-05-06T06:17:46.969Z,22.3
2023-05-06T06:19:03.203Z,23.2
2023-05-06T06:20:19.448Z,22.9
2023-05-06T06:21:35.681Z,23.2
2023-05-06T06:22:51.926Z,23.8
2023-05-06T06:24:08.165Z,22.4
2023-05-06T06:25:24.417Z,21.7
2023-05-06T06:26:40.657Z,23.9
2023-05-06T06:27:56.895Z,23.4
2023-05-06T06:29:13.133Z,23.7
2023-05-06T06:30:29.374Z,19.5
2023-05-06T06:31:45.607Z,20.9
2023-05-06T06:33:00.865Z,17.5
2023-05-06T06:34:17.095Z,19
2023-05-06T06:35:33.356Z,18.5
2023-05-06T06:36:49.578Z,18.2
2023-05-06T06:38:05.825Z,20
2023-05-06T06:39:22.055Z,20.3
2023-05-06T06:40:38.312Z,20.7
2023-05-06T06:41:54.548Z,18.7
2023-05-06T06:43:10.778Z,16.5
2023-05-06T06:44:27.035Z,16.7
2023-05-06T06:45:43.263Z,15.2
2023-05-06T06:46:59.505Z,17.5
2023-05-06T06:48:15.739Z,15.6
2023-05-06T06:49:31.003Z,15.2
2023-05-06T06:50:47.230Z,18.3
2023-05-06T06:52:03.483Z,18.1
2023-05-06T06:53:19.720Z,18
2023-05-06T06:54:35.970Z,19.3
2023-05-06T06:55:52.198Z,20.2
2023-05-06T06:57:08.440Z,20.2
2023-05-06T06:58:24.687Z,20.3
2023-05-06T07:00:57.154Z,17.6
2023-05-06T07:02:13.393Z,18.2
2023-05-06T07:03:29.635Z,17.6
2023-05-06T07:04:45.877Z,15.2
2023-05-06T07:06:01.136Z,15.5
2023-05-06T07:08:33.608Z,14.7
2023-05-06T07:09:49.859Z,16.4
2023-05-06T07:11:06.091Z,17.9
2023-05-06T07:12:22.335Z,18.1
2023-05-06T07:13:38.583Z,17.7
2023-05-06T07:16:11.051Z,17.9
2023-05-06T07:17:26.308Z,19.5
2023-05-06T07:18:41.559Z,19.2
2023-05-06T07:19:57.800Z,19.9
2023-05-06T07:21:14.039Z,19.7
2023-05-06T07:23:46.000Z,20.1
2023-05-06T07:25:02.769Z,19.4
2023-05-06T07:26:19.016Z,20.3
2023-05-06T07:27:35.248Z,19.4
2023-05-06T07:28:51.492Z,19.8
2023-05-06T07:30:07.732Z,20.3
2023-05-06T07:31:23.970Z,19.1
2023-05-06T07:32:40.203Z,20.2
2023-05-06T07:33:56.454Z,19.2
2023-05-06T07:35:12.681Z,19.2
2023-05-06T07:36:27.947Z,19.5
2023-05-06T07:37:44.196Z,18.8
2023-05-06T07:39:00.430Z,19
2023-05-06T07:40:16.675Z,19.1
2023-05-06T07:41:32.905Z,19.3
2023-05-06T07:42:49.161Z,18.7
2023-05-06T07:44:05.396Z,19
2023-05-06T07:46:36.894Z,18.4
2023-05-06T07:47:52.150Z,17.9
2023-05-06T07:49:08.389Z,17.3
2023-05-06T07:50:23.641Z,16.4
2023-05-06T07:51:38.898Z,17
2023-05-06T07:54:11.392Z,16.8
2023-05-06T07:56:43.857Z,17.8
2023-05-06T07:58:00.106Z,17.9
2023-05-06T07:59:16.341Z,18.3
2023-05-06T08:00:32.576Z,18.1
2023-05-06T08:01:48.824Z,17.6
2023-05-06T08:03:05.070Z,17.9
2023-05-06T08:04:21.299Z,18
2023-05-06T08:05:37.550Z,17.6
2023-05-06T08:06:52.798Z,17.2
2023-05-06T08:08:08.064Z,16.8
2023-05-06T08:09:24.296Z,16.3
2023-05-06T08:10:40.546Z,16.4
2023-05-06T08:11:56.770Z,16.1
2023-05-06T08:13:13.018Z,15.4
2023-05-06T08:14:29.265Z,15.5
2023-05-06T08:15:45.493Z,16
2023-05-06T08:17:01.733Z,15.4
2023-05-06T08:19:34.223Z,15.5
2023-05-06T08:20:50.456Z,16
2023-05-06T08:22:06.696Z,16.4
2023-05-06T08:23:22.948Z,15.8
2023-05-06T08:24:38.198Z,16.3
2023-05-06T08:25:54.436Z,16.1
2023-05-06T08:27:10.683Z,16.7
2023-05-06T08:28:26.922Z,16.7
2023-05-06T08:29:43.158Z,16.9
2023-05-06T08:30:59.392Z,16.8
2023-05-06T08:32:15.634Z,17.4
2023-05-06T08:33:31.865Z,17.5
2023-05-06T08:34:47.126Z,18.3
2023-05-06T08:36:02.387Z,17.6
2023-05-06T08:37:18.639Z,18.4
2023-05-06T08:39:51.120Z,17.8
2023-05-06T08:41:07.355Z,18.6
2023-05-06T08:42:23.596Z,17.8
2023-05-06T08:44:56.077Z,18
2023-05-06T08:47:28.550Z,17.7
2023-05-06T08:48:44.780Z,18
2023-05-06T08:50:01.019Z,17.5
2023-05-06T08:51:17.270Z,17
2023-05-06T08:52:32.521Z,16.8
2023-05-06T08:53:47.776Z,14.9
2023-05-06T08:55:04.023Z,15.6
2023-05-06T08:56:20.260Z,15.1
2023-05-06T08:57:36.509Z,14.8
2023-05-06T08:58:52.746Z,14.8
2023-05-06T09:00:08.989Z,14.4
2023-05-06T09:01:25.223Z,13.2
2023-05-06T09:02:41.466Z,13.6
2023-05-06T09:03:57.704Z,12.5
2023-05-06T09:05:13.951Z,12.7
2023-05-06T09:06:29.210Z,12.8
2023-05-06T09:07:44.460Z,13
2023-05-06T09:09:00.708Z,12.5
2023-05-06T09:10:16.952Z,12.5
2023-05-06T09:11:33.193Z,12.2
2023-05-06T09:12:49.425Z,12.3
2023-05-06T09:14:05.662Z,11.9
2023-05-06T09:15:21.898Z,11.6
2023-05-06T09:16:38.135Z,11.3
2023-05-06T09:17:54.377Z,11.5
2023-05-06T09:19:10.624Z,11.9
2023-05-06T09:20:26.859Z,11.2
2023-05-06T09:21:43.108Z,11
2023-05-06T09:22:59.348Z,11
2023-05-06T09:24:14.590Z,11.3
2023-05-06T09:25:30.833Z,10.8
2023-05-06T09:26:47.088Z,11
2023-05-06T09:28:03.317Z,11.1
2023-05-06T09:29:19.548Z,11.2
2023-05-06T09:30:35.799Z,11.5
2023-05-06T09:31:52.046Z,11.1
2023-05-06T09:33:08.269Z,11.7
2023-05-06T09:34:24.524Z,11.7
2023-05-06T09:35:40.763Z,11.3
2023-05-06T09:36:56.992Z,11.1
2023-05-06T09:38:13.237Z,11.8
2023-05-06T09:39:29.481Z,11.3
2023-05-06T09:40:44.736Z,12.1
2023-05-06T09:43:17.207Z,11.8
2023-05-06T09:44:33.442Z,12.1
2023-05-06T09:45:49.684Z,11.9
2023-05-06T09:47:05.931Z,12.1
2023-05-06T09:48:22.171Z,11.8
2023-05-06T09:49:38.406Z,11.7
2023-05-06T09:50:54.643Z,12.1
2023-05-06T09:52:10.894Z,12.4
2023-05-06T09:53:27.125Z,12.6
2023-05-06T09:54:43.373Z,12.6
2023-05-06T09:55:59.617Z,12.7
2023-05-06T09:58:31.102Z,13.5
2023-05-06T09:59:47.338Z,13.7
2023-05-06T10:01:03.589Z,14
2023-05-06T10:02:19.821Z,14.5
2023-05-06T10:03:36.066Z,14
2023-05-06T10:04:52.297Z,14
2023-05-06T10:06:08.550Z,13.8
2023-05-06T10:07:24.786Z,13.8
2023-05-06T10:08:41.025Z,14.1
2023-05-06T10:09:57.266Z,14.4
2023-05-06T10:11:13.512Z,13.6
2023-05-06T10:12:29.743Z,13.9
2023-05-06T10:13:44.991Z,13.9
2023-05-06T10:15:01.236Z,14.1
2023-05-06T10:16:17.481Z,13.8
2023-05-06T10:17:33.722Z,14.3
2023-05-06T10:18:49.954Z,14.4
2023-05-06T10:20:06.203Z,14.8
2023-05-06T10:21:22.445Z,14.5
2023-05-06T10:22:38.676Z,14.7
2023-05-06T10:23:54.912Z,14.2
2023-05-06T10:25:11.157Z,14.4
2023-05-06T10:26:27.394Z,14.3
2023-05-06T10:27:43.634Z,14
2023-05-06T10:28:59.883Z,14.1
2023-05-06T10:30:15.127Z,14.4
2023-05-06T10:31:31.378Z,14.1
2023-05-06T10:32:47.622Z,13.7
2023-05-06T10:34:03.863Z,13.7
2023-05-06T10:35:20.102Z,13.8
2023-05-06T10:36:36.328Z,13.7
2023-05-06T10:37:52.566Z,13.2
2023-05-06T10:39:08.812Z,12.9
2023-05-06T10:41:41.297Z,14.2
2023-05-06T10:42:57.526Z,13.8
2023-05-06T10:44:13.776Z,13.8
2023-05-06T10:45:30.006Z,13.4
2023-05-06T10:46:46.365Z,14.1
2023-05-06T10:48:02.606Z,13.8
2023-05-06T10:49:18.855Z,13.5
2023-05-06T10:50:35.094Z,13.3
2023-05-06T10:51:51.340Z,12.8
2023-05-06T10:53:07.569Z,12.6
2023-05-06T10:54:23.820Z,12.4
2023-05-06T10:56:56.292Z,11.8
2023-05-06T10:58:12.533Z,11.7
2023-05-06T10:59:28.775Z,12.3
2023-05-06T11:00:45.017Z,11.5
2023-05-06T11:02:01.253Z,11.3
2023-05-06T11:03:16.496Z,11.1
2023-05-06T11:04:32.751Z,11.1
2023-05-06T11:05:48.993Z,11.1
2023-05-06T11:07:05.233Z,10.4
2023-05-06T11:08:21.473Z,10.2
2023-05-06T11:09:37.700Z,10.4
2023-05-06T11:10:53.939Z,10.4
2023-05-06T11:12:10.192Z,11.2
2023-05-06T11:13:26.434Z,11.3
2023-05-06T11:14:42.672Z,11
2023-05-06T11:15:58.900Z,11
2023-05-06T11:17:15.144Z,10.7
2023-05-06T11:18:31.387Z,10.4
2023-05-06T11:19:46.650Z,10.4
2023-05-06T11:21:02.886Z,10.3
2023-05-06T11:22:19.113Z,10.8
2023-05-06T11:23:35.364Z,10.8
2023-05-06T11:24:51.593Z,10.6
2023-05-06T11:27:24.083Z,10.3
2023-05-06T11:28:40.321Z,11.1
2023-05-06T11:29:56.556Z,11.5
2023-05-06T11:31:12.808Z,11.2
2023-05-06T11:32:29.033Z,11.5
2023-05-06T11:33:45.270Z,11.3
2023-05-06T11:35:01.513Z,11.8
2023-05-06T11:36:16.771Z,12
2023-05-06T11:37:33.021Z,12.2
2023-05-06T11:38:49.259Z,11.8
2023-05-06T11:40:05.486Z,12
2023-05-06T11:41:21.736Z,11.7
2023-05-06T11:42:37.980Z,12
2023-05-06T11:43:54.220Z,11.9
2023-05-06T11:45:10.442Z,11
2023-05-06T11:46:26.683Z,11
2023-05-06T11:47:42.937Z,11.3
2023-05-06T11:48:59.169Z,11.9
2023-05-06T11:50:15.412Z,11.8
2023-05-06T11:51:30.675Z,12.3
2023-05-06T11:52:46.908Z,13.4
2023-05-06T11:54:03.150Z,14
2023-05-06T11:55:19.399Z,13.5
2023-05-06T11:56:35.636Z,13.6
2023-05-06T11:57:51.879Z,14.3
2023-05-06T11:59:08.116Z,13.1
2023-05-06T12:00:24.344Z,13.8
2023-05-06T12:01:40.598Z,12.8
2023-05-06T12:02:56.827Z,12.8
2023-05-06T12:04:13.068Z,12.8
2023-05-06T12:05:29.305Z,13.1
2023-05-06T12:06:45.558Z,12.6
2023-05-06T12:08:00.801Z,12.5
2023-05-06T12:09:17.040Z,12.1
2023-05-06T12:10:33.282Z,12.1
2023-05-06T12:11:49.522Z,11.9
2023-05-06T12:13:05.753Z,11.6
2023-05-06T12:14:21.998Z,11.5
2023-05-06T12:15:38.244Z,10.5
2023-05-06T12:16:54.483Z,10.6
2023-05-06T12:18:10.728Z,10.9
2023-05-06T12:19:26.957Z,10.3
2023-05-06T12:20:43.194Z,11.3
2023-05-06T12:21:59.436Z,10.8
2023-05-06T12:23:15.688Z,10.1
2023-05-06T12:24:30.935Z,10.9
2023-05-06T12:25:47.171Z,11.4
2023-05-06T12:27:03.414Z,11.1
2023-05-06T12:28:19.666Z,10.5
2023-05-06T12:30:52.147Z,11.1
2023-05-06T12:32:08.366Z,11.2
2023-05-06T12:33:24.619Z,10.9
2023-05-06T12:34:40.849Z,10.2
2023-05-06T12:35:57.102Z,11.3
2023-05-06T12:37:13.333Z,10.7
2023-05-06T12:38:29.569Z,11.5
2023-05-06T12:39:45.805Z,11.8
2023-05-06T12:41:01.064Z,11.5
2023-05-06T12:42:17.303Z,12.8
2023-05-06T12:43:33.555Z,11.9
2023-05-06T12:44:49.799Z,12.2
2023-05-06T12:46:06.034Z,12.7
2023-05-06T12:47:22.267Z,12.6
2023-05-06T12:48:38.511Z,12.7
2023-05-06T12:51:10.993Z,13.1
2023-05-06T12:52:27.228Z,12.3
2023-05-06T12:53:43.465Z,11.8
2023-05-06T12:54:59.711Z,12.1
2023-05-06T12:56:15.955Z,11.5
2023-05-06T12:57:31.203Z,12.1
2023-05-06T12:58:47.454Z,12.4
2023-05-06T13:00:03.693Z,11.6
2023-05-06T13:01:19.917Z,10.8
2023-05-06T13:02:36.175Z,11.2
2023-05-06T13:03:52.400Z,10.8
2023-05-06T13:05:08.650Z,11.1
2023-05-06T13:06:24.876Z,10.1
2023-05-06T13:07:41.115Z,9.9
2023-05-06T13:08:57.371Z,10.3
2023-05-06T13:10:13.598Z,10.9
2023-05-06T13:11:29.844Z,11
2023-05-06T13:12:46.081Z,10.3
2023-05-06T13:14:01.342Z,9.3
2023-05-06T13:15:17.570Z,9.9
2023-05-06T13:16:33.816Z,10.1
2023-05-06T13:17:50.065Z,10.1
2023-05-06T13:19:06.288Z,9.9
2023-05-06T13:20:22.539Z,9.5
2023-05-06T13:21:38.786Z,9.7
2023-05-06T13:22:55.015Z,10.4
2023-05-06T13:24:11.266Z,10.2
2023-05-06T13:25:27.491Z,9.4
2023-05-06T13:26:43.743Z,10
2023-05-06T13:29:16.214Z,11.1
2023-05-06T13:30:31.464Z,11.2
2023-05-06T13:31:47.703Z,11.3
2023-05-06T13:33:03.942Z,10.7
2023-05-06T13:34:20.187Z,11
2023-05-06T13:35:36.425Z,11.8
2023-05-06T13:36:52.661Z,11.5
2023-05-06T13:38:08.907Z,11.9
2023-05-06T13:39:25.141Z,11.5
2023-05-06T13:40:41.391Z,12.1
2023-05-06T13:41:57.623Z,11.4
2023-05-06T13:43:13.863Z,11.5
2023-05-06T13:44:30.107Z,11.6
2023-05-06T13:45:46.357Z,12
2023-05-06T13:47:01.606Z,12.6
2023-05-06T13:48:17.852Z,12.5
2023-05-06T13:49:34.077Z,11.5
2023-05-06T13:50:50.316Z,12
2023-05-06T13:52:06.570Z,11.7
2023-05-06T13:53:22.809Z,11.4
2023-05-06T13:54:39.044Z,11.9
2023-05-06T13:55:55.285Z,12.2
2023-05-06T13:57:11.516Z,11.9
2023-05-06T13:59:44.000Z,11.8
2023-05-06T14:01:00.237Z,12.2
2023-05-06T14:02:16.494Z,11.7
2023-05-06T14:03:31.753Z,11.5
2023-05-06T14:04:47.984Z,11.9
2023-05-06T14:06:04.225Z,12.5
2023-05-06T14:07:20.456Z,12.2
2023-05-06T14:08:36.707Z,12.3
2023-05-06T14:09:52.928Z,12
2023-05-06T14:11:09.176Z,12.6
2023-05-06T14:12:25.410Z,12.9
2023-05-06T14:13:41.662Z,13
2023-05-06T14:14:57.896Z,13.1
2023-05-06T14:16:14.134Z,11.9
2023-05-06T14:17:30.382Z,12.1
2023-05-06T14:18:46.613Z,11.9
2023-05-06T14:20:01.865Z,11.5
2023-05-06T14:21:18.106Z,11.9
2023-05-06T14:22:34.342Z,12.1
2023-05-06T14:23:50.599Z,11.4
2023-05-06T14:25:06.831Z,12.6
2023-05-06T14:26:23.078Z,12.2
2023-05-06T14:27:39.321Z,11.9
2023-05-06T14:28:55.563Z,11.9
2023-05-06T14:30:11.798Z,12.6
2023-05-06T14:31:28.034Z,12.8
2023-05-06T14:32:44.274Z,12.8
2023-05-06T14:34:00.521Z,13.1
2023-05-06T14:35:16.751Z,12.8
2023-05-06T14:36:32.008Z,13.4
2023-05-06T14:37:48.244Z,13.1
2023-05-06T14:39:04.486Z,13.3
2023-05-06T14:40:20.730Z,13.8
2023-05-06T14:41:36.000Z,13.6
2023-05-06T14:42:53.215Z,13.7
2023-05-06T14:44:09.443Z,13.1
2023-05-06T14:45:25.684Z,12.9
2023-05-06T14:46:41.921Z,13.4
2023-05-06T14:47:58.171Z,13.1
2023-05-06T14:49:14.407Z,13.4
2023-05-06T14:50:30.644Z,14.2
2023-05-06T14:53:03.121Z,13.9
2023-05-06T14:54:18.391Z,15
2023-05-06T14:55:34.613Z,15.2
2023-05-06T14:56:50.855Z,15.2
2023-05-06T14:58:07.110Z,15.1
2023-05-06T14:59:23.340Z,15.9
2023-05-06T15:00:39.578Z,15.3
2023-05-06T15:01:55.819Z,15.2
2023-05-06T15:03:12.052Z,15.5
2023-05-06T15:04:28.293Z,15.2
2023-05-06T15:05:44.533Z,15.4
2023-05-06T15:07:00.782Z,15.3
2023-05-06T15:08:17.021Z,14.3
2023-05-06T15:09:33.250Z,15.5
2023-05-06T15:10:48.520Z,14.7
2023-05-06T15:12:04.764Z,14.4
2023-05-06T15:13:20.985Z,14.1
2023-05-06T15:14:37.236Z,14.4
2023-05-06T15:15:53.482Z,13.8
2023-05-06T15:17:09.710Z,14.1
2023-05-06T15:18:25.962Z,14.2
2023-05-06T15:19:42.202Z,14.6
2023-05-06T15:20:58.423Z,13.9
2023-05-06T15:22:14.666Z,13.4
2023-05-06T15:23:30.907Z,14.6
2023-05-06T15:24:47.152Z,15.4
2023-05-06T15:26:03.403Z,15.7
2023-05-06T15:27:18.657Z,14.6
2023-05-06T15:28:34.878Z,15.5
2023-05-06T15:31:07.361Z,15.6
2023-05-06T15:32:23.608Z,15.7
2023-05-06T15:33:39.841Z,15.6
2023-05-06T15:34:56.084Z,16.2
2023-05-06T15:36:12.335Z,16.9
2023-05-06T15:37:28.561Z,17.4
2023-05-06T15:38:44.815Z,16.1
2023-05-06T15:40:01.038Z,16.2
2023-05-06T15:41:17.276Z,16.7
2023-05-06T15:42:33.536Z,16.8
2023-05-06T15:43:48.776Z,16.8
2023-05-06T15:46:21.255Z,18.1
2023-05-06T15:47:37.493Z,18.1
2023-05-06T15:48:53.750Z,18.3
2023-05-06T15:50:09.972Z,18.3
2023-05-06T15:51:26.223Z,18
2023-05-06T15:52:42.456Z,18.4
2023-05-06T15:53:58.701Z,18.5
2023-05-06T15:55:14.948Z,18.7
2023-05-06T15:56:31.187Z,17.6
2023-05-06T15:57:47.423Z,17.9
2023-05-06T15:59:03.656Z,17.6
2023-05-06T16:00:18.925Z,17.7
2023-05-06T16:01:35.160Z,17.6
2023-05-06T16:02:51.389Z,17.7
2023-05-06T16:04:07.639Z,17.6
2023-05-06T16:05:23.872Z,18.2
2023-05-06T16:09:11.610Z,17.6
2023-05-06T16:10:26.897Z,17.4
2023-05-06T16:11:42.152Z,17
2023-05-06T16:12:58.388Z,16.9
2023-05-06T16:14:14.618Z,17.1
2023-05-06T16:16:47.110Z,17.2
2023-05-06T16:18:03.348Z,17.2
2023-05-06T16:19:19.585Z,17.6
2023-05-06T16:20:35.833Z,17.9
2023-05-06T16:21:52.062Z,17.3
2023-05-06T16:23:08.301Z,17.5
2023-05-06T16:24:24.549Z,17.5
2023-05-06T16:25:40.782Z,17.1
2023-05-06T16:26:57.013Z,17.3
2023-05-06T16:28:12.287Z,17.2
2023-05-06T16:29:28.524Z,17
2023-05-06T16:30:44.760Z,18.2
2023-05-06T16:32:01.004Z,18.1
2023-05-06T16:33:17.238Z,17.5
2023-05-06T16:34:33.482Z,17.2
2023-05-06T16:35:49.707Z,17.4
2023-05-06T16:37:05.953Z,17.8
2023-05-06T16:38:21.228Z,17.5
2023-05-06T16:39:36.477Z,17.9
2023-05-06T16:40:52.712Z,16.7
2023-05-06T16:42:08.952Z,16.6
2023-05-06T16:43:25.193Z,16.3
2023-05-06T16:44:41.429Z,16.2
2023-05-06T16:45:57.681Z,15.6
2023-05-06T16:47:13.909Z,15
2023-05-06T16:48:30.150Z,15.5
2023-05-06T16:49:46.398Z,16.1
2023-05-06T16:51:02.640Z,16.3
2023-05-06T16:52:18.863Z,15.6
2023-05-06T16:53:35.111Z,15.5
2023-05-06T16:54:51.357Z,15.8
2023-05-06T16:56:06.602Z,15.9
2023-05-06T16:57:22.850Z,15.4
2023-05-06T16:58:39.087Z,15.6
2023-05-06T16:59:55.333Z,16
2023-05-06T17:01:11.567Z,15.5
2023-05-06T17:02:27.804Z,15.9
2023-05-06T17:03:44.043Z,15.5
2023-05-06T17:05:00.287Z,15.8
2023-05-06T17:06:16.534Z,15.5
2023-05-06T17:07:32.771Z,16
2023-05-06T17:08:49.003Z,16.1
2023-05-06T17:10:05.244Z,17.1
2023-05-06T17:11:21.494Z,16.5
2023-05-06T17:12:36.731Z,17.4
2023-05-06T17:13:52.989Z,16.5
2023-05-06T17:15:09.215Z,16.9
2023-05-06T17:16:25.458Z,15.6
2023-05-06T17:17:41.699Z,16.8
2023-05-06T17:18:57.936Z,16.9
2023-05-06T17:20:14.183Z,17.1
2023-05-06T17:21:30.426Z,18.1
2023-05-06T17:22:46.653Z,18.1
2023-05-06T17:24:02.898Z,17.9
2023-05-06T17:25:19.135Z,18
2023-05-06T17:26:35.379Z,18.4
2023-05-06T17:27:51.621Z,18.7
2023-05-06T17:29:06.882Z,17.8
2023-05-06T17:30:23.106Z,18.4
2023-05-06T17:32:55.605Z,17.4
2023-05-06T17:34:11.826Z,18
2023-05-06T17:35:28.083Z,18.1
2023-05-06T17:36:44.305Z,18.1
2023-05-06T17:38:00.549Z,18.3
2023-05-06T17:39:16.806Z,17.9
2023-05-06T17:40:33.027Z,17.4
2023-05-06T17:41:49.276Z,17.4
2023-05-06T17:43:05.517Z,17.9
2023-05-06T17:44:21.745Z,18
2023-05-06T17:45:37.011Z,18.1
2023-05-06T17:46:53.258Z,17.6
2023-05-06T17:48:09.492Z,17.2
2023-05-06T17:49:25.733Z,18.2
2023-05-06T17:50:41.974Z,17.5
2023-05-06T17:51:58.209Z,16.7
2023-05-06T17:53:14.451Z,16.3
2023-05-06T17:54:30.699Z,16.5
2023-05-06T17:55:46.936Z,16.1
2023-05-06T17:57:03.167Z,16.6
2023-05-06T17:58:19.410Z,15.9
2023-05-06T17:59:35.658Z,16.3